sensor_id;sensor_type;location;lat;lon;timestamp;temperature;humidity
9662;DHT22;24982;52.344;12.990;2023-05-07T00:00:16;11.30;99.90
9662;DHT22;24982;52.344;12.990;2023-05-07T00:03:19;11.40;99.90
9662;DHT22;24982;52.344;12.990;2023-05-07T00:06:23;11.40;99.90
9662;DHT22;24982;52.344;12.990;2023-05-07T00:09:26;11.40;99.90
9662;DHT22;24982;52.344;12.990;2023-05-07T00:12:28;11.40;99.90
9662;DHT22;24982;52.344;12.990;2023-05-07T00:15:32;11.30;99.90
9662;DHT22;24982;52.344;12.990;2023-05-07T00:18:33;11.40;99.90
9662;DHT22;24982;52.344;12.990;2023-05-07T00:21:37;11.30;99.90
9662;DHT22;24982;52.344;12.990;2023-05-07T00:24:39;11.30;99.90
9662;DHT22;24982;52.344;12.990;2023-05-07T00:27:41;11.40;99.90
9662;DHT22;24982;52.344;12.990;2023-05-07T00:30:43;11.40;99.90
9662;DHT22;24982;52.344;12.990;2023-05-07T00:33:45;11.30;99.90
9662;DHT22;24982;52.344;12.990;2023-05-07T00:36:48;11.30;99.90
9662;DHT22;24982;52.344;12.990;2023-05-07T00:39:50;11.30;99.90
9662;DHT22;24982;52.344;12.990;2023-05-07T00:42:52;11.30;99.90
9662;DHT22;24982;52.344;12.990;2023-05-07T00:45:57;11.30;99.90
9662;DHT22;24982;52.344;12.990;2023-05-07T00:48:59;11.30;99.90
9662;DHT22;24982;52.344;12.990;2023-05-07T00:52:03;11.30;99.90
9662;DHT22;24982;52.344;12.990;2023-05-07T00:55:06;11.40;99.90
9662;DHT22;24982;52.344;12.990;2023-05-07T00:58:08;11.40;99.90
9662;DHT22;24982;52.344;12.990;2023-05-07T01:01:10;11.30;99.90
9662;DHT22;24982;52.344;12.990;2023-05-07T01:04:12;11.30;99.90
9662;DHT22;24982;52.344;12.990;2023-05-07T01:07:16;11.20;99.90
9662;DHT22;24982;52.344;12.990;2023-05-07T01:10:18;11.20;99.90
9662;DHT22;24982;52.344;12.990;2023-05-07T01:13:21;11.30;99.90
9662;DHT22;24982;52.344;12.990;2023-05-07T01:16:23;11.30;99.90
9662;DHT22;24982;52.344;12.990;2023-05-07T01:19:26;11.20;99.90
9662;DHT22;24982;52.344;12.990;2023-05-07T01:22:31;11.30;99.90
9662;DHT22;24982;52.344;12.990;2023-05-07T01:25:35;11.30;99.90
9662;DHT22;24982;52.344;12.990;2023-05-07T01:28:37;11.50;99.90
9662;DHT22;24982;52.344;12.990;2023-05-07T01:31:40;11.20;99.90
9662;DHT22;24982;52.344;12.990;2023-05-07T01:34:45;11.50;99.90
9662;DHT22;24982;52.344;12.990;2023-05-07T01:37:49;11.20;99.90
9662;DHT22;24982;52.344;12.990;2023-05-07T01:40:51;11.20;99.90
9662;DHT22;24982;52.344;12.990;2023-05-07T01:43:55;11.20;99.90
9662;DHT22;24982;52.344;12.990;2023-05-07T01:46:58;11.20;99.90
9662;DHT22;24982;52.344;12.990;2023-05-07T01:50:01;11.30;99.90
9662;DHT22;24982;52.344;12.990;2023-05-07T01:53:04;11.20;99.90
9662;DHT22;24982;52.344;12.990;2023-05-07T01:56:07;11.20;99.90
9662;DHT22;24982;52.344;12.990;2023-05-07T01:59:11;11.30;99.90
9662;DHT22;24982;52.344;12.990;2023-05-07T02:02:14;11.30;99.90
9662;DHT22;24982;52.344;12.990;2023-05-07T02:05:18;11.30;99.90
9662;DHT22;24982;52.344;12.990;2023-05-07T02:08:28;11.30;99.90
9662;DHT22;24982;52.344;12.990;2023-05-07T02:11:31;11.30;99.90
9662;DHT22;24982;52.344;12.990;2023-05-07T02:14:33;11.20;99.90
9662;DHT22;24982;52.344;12.990;2023-05-07T02:17:39;11.30;99.90
9662;DHT22;24982;52.344;12.990;2023-05-07T02:20:59;11.20;99.90
9662;DHT22;24982;52.344;12.990;2023-05-07T02:24:03;11.30;99.90
9662;DHT22;24982;52.344;12.990;2023-05-07T02:27:05;11.30;99.90
9662;DHT22;24982;52.344;12.990;2023-05-07T02:30:08;11.30;99.90
9662;DHT22;24982;52.344;12.990;2023-05-07T02:33:10;11.30;99.90
9662;DHT22;24982;52.344;12.990;2023-05-07T02:36:13;11.30;99.90
9662;DHT22;24982;52.344;12.990;2023-05-07T02:39:29;11.30;99.90
9662;DHT22;24982;52.344;12.990;2023-05-07T02:42:31;11.30;99.90
9662;DHT22;24982;52.344;12.990;2023-05-07T02:45:33;11.30;99.90
9662;DHT22;24982;52.344;12.990;2023-05-07T02:48:37;11.30;99.90
9662;DHT22;24982;52.344;12.990;2023-05-07T02:51:39;11.30;99.90
9662;DHT22;24982;52.344;12.990;2023-05-07T02:54:48;11.30;99.90
9662;DHT22;24982;52.344;12.990;2023-05-07T02:57:50;11.30;99.90
9662;DHT22;24982;52.344;12.990;2023-05-07T03:00:53;11.30;99.90
9662;DHT22;24982;52.344;12.990;2023-05-07T03:04:15;11.20;99.90
9662;DHT22;24982;52.344;12.990;2023-05-07T03:07:17;11.40;99.90
9662;DHT22;24982;52.344;12.990;2023-05-07T03:10:21;11.30;99.90
9662;DHT22;24982;52.344;12.990;2023-05-07T03:13:23;11.30;99.90
9662;DHT22;24982;52.344;12.990;2023-05-07T03:16:25;11.20;99.90
9662;DHT22;24982;52.344;12.990;2023-05-07T03:19:28;11.30;99.90
9662;DHT22;24982;52.344;12.990;2023-05-07T03:22:31;11.30;99.90
9662;DHT22;24982;52.344;12.990;2023-05-07T03:25:35;11.40;99.90
9662;DHT22;24982;52.344;12.990;2023-05-07T03:28:37;11.30;99.90
9662;DHT22;24982;52.344;12.990;2023-05-07T03:31:43;11.30;99.90
9662;DHT22;24982;52.344;12.990;2023-05-07T03:34:45;11.30;99.90
9662;DHT22;24982;52.344;12.990;2023-05-07T03:37:48;11.30;99.90
9662;DHT22;24982;52.344;12.990;2023-05-07T03:40:54;11.20;99.90
9662;DHT22;24982;52.344;12.990;2023-05-07T03:43:56;11.30;99.90
9662;DHT22;24982;52.344;12.990;2023-05-07T03:46:58;11.30;99.90
9662;DHT22;24982;52.344;12.990;2023-05-07T03:50:00;11.20;99.90
9662;DHT22;24982;52.344;12.990;2023-05-07T03:53:03;11.70;99.90
9662;DHT22;24982;52.344;12.990;2023-05-07T03:56:12;11.20;99.90
9662;DHT22;24982;52.344;12.990;2023-05-07T03:59:15;11.30;99.90
9662;DHT22;24982;52.344;12.990;2023-05-07T04:02:19;11.20;99.90
9662;DHT22;24982;52.344;12.990;2023-05-07T04:05:22;11.10;99.90
9662;DHT22;24982;52.344;12.990;2023-05-07T04:08:27;11.10;99.90
9662;DHT22;24982;52.344;12.990;2023-05-07T04:11:31;11.10;99.90
9662;DHT22;24982;52.344;12.990;2023-05-07T04:14:34;11.10;99.90
9662;DHT22;24982;52.344;12.990;2023-05-07T04:17:37;11.10;99.90
9662;DHT22;24982;52.344;12.990;2023-05-07T04:20:39;11.10;99.90
9662;DHT22;24982;52.344;12.990;2023-05-07T04:23:46;11.10;99.90
9662;DHT22;24982;52.344;12.990;2023-05-07T04:26:50;11.10;99.90
9662;DHT22;24982;52.344;12.990;2023-05-07T04:29:55;11.10;99.90
9662;DHT22;24982;52.344;12.990;2023-05-07T04:32:57;11.10;99.90
9662;DHT22;24982;52.344;12.990;2023-05-07T04:36:03;11.30;99.90
9662;DHT22;24982;52.344;12.990;2023-05-07T04:39:08;11.20;99.90
9662;DHT22;24982;52.344;12.990;2023-05-07T04:42:16;11.20;99.90
9662;DHT22;24982;52.344;12.990;2023-05-07T04:45:18;11.10;99.90
9662;DHT22;24982;52.344;12.990;2023-05-07T04:48:22;11.20;99.90
9662;DHT22;24982;52.344;12.990;2023-05-07T04:51:25;11.20;99.90
9662;DHT22;24982;52.344;12.990;2023-05-07T04:54:29;11.20;99.90
9662;DHT22;24982;52.344;12.990;2023-05-07T04:57:33;11.10;99.90
9662;DHT22;24982;52.344;12.990;2023-05-07T05:00:35;11.20;99.90
9662;DHT22;24982;52.344;12.990;2023-05-07T05:03:39;11.20;99.90
9662;DHT22;24982;52.344;12.990;2023-05-07T05:06:42;11.20;99.90
9662;DHT22;24982;52.344;12.990;2023-05-07T05:09:46;11.20;99.90
9662;DHT22;24982;52.344;12.990;2023-05-07T05:12:49;11.20;99.90
9662;DHT22;24982;52.344;12.990;2023-05-07T05:15:51;11.20;99.90
9662;DHT22;24982;52.344;12.990;2023-05-07T05:18:54;11.30;99.90
9662;DHT22;24982;52.344;12.990;2023-05-07T05:21:56;11.20;99.90
9662;DHT22;24982;52.344;12.990;2023-05-07T05:24:58;11.20;99.90
9662;DHT22;24982;52.344;12.990;2023-05-07T05:28:03;11.30;99.90
9662;DHT22;24982;52.344;12.990;2023-05-07T05:31:08;11.30;99.90
9662;DHT22;24982;52.344;12.990;2023-05-07T05:34:11;11.20;99.90
9662;DHT22;24982;52.344;12.990;2023-05-07T05:37:13;11.20;99.90
9662;DHT22;24982;52.344;12.990;2023-05-07T05:40:16;11.20;99.90
9662;DHT22;24982;52.344;12.990;2023-05-07T05:43:19;11.20;99.90
9662;DHT22;24982;52.344;12.990;2023-05-07T05:46:22;11.20;99.90
9662;DHT22;24982;52.344;12.990;2023-05-07T05:49:29;11.20;99.90
9662;DHT22;24982;52.344;12.990;2023-05-07T05:52:31;11.20;99.90
9662;DHT22;24982;52.344;12.990;2023-05-07T05:55:33;11.20;99.90
9662;DHT22;24982;52.344;12.990;2023-05-07T05:58:37;11.20;99.90
9662;DHT22;24982;52.344;12.990;2023-05-07T06:01:41;11.30;99.90
9662;DHT22;24982;52.344;12.990;2023-05-07T06:04:43;11.30;99.90
9662;DHT22;24982;52.344;12.990;2023-05-07T06:07:49;11.40;99.90
9662;DHT22;24982;52.344;12.990;2023-05-07T06:10:52;11.40;99.90
9662;DHT22;24982;52.344;12.990;2023-05-07T06:13:56;11.40;99.90
9662;DHT22;24982;52.344;12.990;2023-05-07T06:16:59;11.40;99.90
9662;DHT22;24982;52.344;12.990;2023-05-07T06:20:01;11.40;99.90
9662;DHT22;24982;52.344;12.990;2023-05-07T06:23:03;11.40;99.90
9662;DHT22;24982;52.344;12.990;2023-05-07T06:26:07;11.40;99.90
9662;DHT22;24982;52.344;12.990;2023-05-07T06:29:16;11.50;99.90
9662;DHT22;24982;52.344;12.990;2023-05-07T06:32:18;11.50;99.90
9662;DHT22;24982;52.344;12.990;2023-05-07T06:35:21;11.50;99.90
9662;DHT22;24982;52.344;12.990;2023-05-07T06:38:23;11.60;99.90
9662;DHT22;24982;52.344;12.990;2023-05-07T06:41:25;11.60;99.90
9662;DHT22;24982;52.344;12.990;2023-05-07T06:44:30;11.60;99.90
9662;DHT22;24982;52.344;12.990;2023-05-07T06:47:50;11.60;99.90
9662;DHT22;24982;52.344;12.990;2023-05-07T06:50:52;11.70;99.90
9662;DHT22;24982;52.344;12.990;2023-05-07T06:53:56;11.80;99.90
9662;DHT22;24982;52.344;12.990;2023-05-07T06:56:58;11.80;99.90
9662;DHT22;24982;52.344;12.990;2023-05-07T07:00:05;11.90;99.90
9662;DHT22;24982;52.344;12.990;2023-05-07T07:03:16;11.90;99.90
9662;DHT22;24982;52.344;12.990;2023-05-07T07:06:19;11.90;99.90
9662;DHT22;24982;52.344;12.990;2023-05-07T07:09:21;12.00;99.90
9662;DHT22;24982;52.344;12.990;2023-05-07T07:12:23;12.00;99.90
9662;DHT22;24982;52.344;12.990;2023-05-07T07:15:28;12.00;99.90
9662;DHT22;24982;52.344;12.990;2023-05-07T07:18:31;12.10;99.90
9662;DHT22;24982;52.344;12.990;2023-05-07T07:21:33;12.20;99.90
9662;DHT22;24982;52.344;12.990;2023-05-07T07:24:35;12.10;99.90
9662;DHT22;24982;52.344;12.990;2023-05-07T07:27:40;12.10;99.90
9662;DHT22;24982;52.344;12.990;2023-05-07T07:30:44;12.20;99.90
9662;DHT22;24982;52.344;12.990;2023-05-07T07:33:47;12.20;99.90
9662;DHT22;24982;52.344;12.990;2023-05-07T07:36:50;12.20;99.90
9662;DHT22;24982;52.344;12.990;2023-05-07T07:39:55;12.20;99.90
9662;DHT22;24982;52.344;12.990;2023-05-07T07:42:57;12.10;99.90
9662;DHT22;24982;52.344;12.990;2023-05-07T07:46:02;12.20;99.90
9662;DHT22;24982;52.344;12.990;2023-05-07T07:49:04;12.20;99.90
9662;DHT22;24982;52.344;12.990;2023-05-07T07:52:06;12.20;99.90
9662;DHT22;24982;52.344;12.990;2023-05-07T07:55:10;12.20;99.90
9662;DHT22;24982;52.344;12.990;2023-05-07T07:58:14;12.20;99.90
9662;DHT22;24982;52.344;12.990;2023-05-07T08:01:17;12.20;99.90
9662;DHT22;24982;52.344;12.990;2023-05-07T08:04:21;12.20;99.90
9662;DHT22;24982;52.344;12.990;2023-05-07T08:07:23;12.30;99.90
9662;DHT22;24982;52.344;12.990;2023-05-07T08:10:25;12.30;99.90
9662;DHT22;24982;52.344;12.990;2023-05-07T08:13:34;12.30;99.90
9662;DHT22;24982;52.344;12.990;2023-05-07T08:16:38;12.40;99.90
9662;DHT22;24982;52.344;12.990;2023-05-07T08:19:41;12.40;99.90
9662;DHT22;24982;52.344;12.990;2023-05-07T08:22:46;12.50;99.90
9662;DHT22;24982;52.344;12.990;2023-05-07T08:25:49;12.50;99.90
9662;DHT22;24982;52.344;12.990;2023-05-07T08:28:55;12.70;99.90
9662;DHT22;24982;52.344;12.990;2023-05-07T08:31:58;12.80;99.90
9662;DHT22;24982;52.344;12.990;2023-05-07T08:35:00;12.90;99.90
9662;DHT22;24982;52.344;12.990;2023-05-07T08:38:02;12.90;99.90
9662;DHT22;24982;52.344;12.990;2023-05-07T08:41:05;13.00;99.90
9662;DHT22;24982;52.344;12.990;2023-05-07T08:44:12;13.20;99.90
9662;DHT22;24982;52.344;12.990;2023-05-07T08:47:16;13.20;99.90
9662;DHT22;24982;52.344;12.990;2023-05-07T08:50:20;13.40;99.90
9662;DHT22;24982;52.344;12.990;2023-05-07T08:53:23;13.50;99.90
9662;DHT22;24982;52.344;12.990;2023-05-07T08:56:26;13.80;99.90
9662;DHT22;24982;52.344;12.990;2023-05-07T08:59:29;14.00;99.90
9662;DHT22;24982;52.344;12.990;2023-05-07T09:02:34;14.00;99.90
9662;DHT22;24982;52.344;12.990;2023-05-07T09:05:36;14.20;99.90
9662;DHT22;24982;52.344;12.990;2023-05-07T09:11:46;14.70;99.90
9662;DHT22;24982;52.344;12.990;2023-05-07T09:36:29;14.60;99.90
9662;DHT22;24982;52.344;12.990;2023-05-07T09:39:39;14.50;99.90
9662;DHT22;24982;52.344;12.990;2023-05-07T09:42:41;14.40;99.90
9662;DHT22;24982;52.344;12.990;2023-05-07T09:45:46;14.30;99.90
9662;DHT22;24982;52.344;12.990;2023-05-07T09:48:57;14.20;99.90
9662;DHT22;24982;52.344;12.990;2023-05-07T09:52:02;14.50;99.90
9662;DHT22;24982;52.344;12.990;2023-05-07T09:55:08;14.60;99.90
9662;DHT22;24982;52.344;12.990;2023-05-07T09:58:12;14.60;99.90
9662;DHT22;24982;52.344;12.990;2023-05-07T10:01:17;14.60;99.90
9662;DHT22;24982;52.344;12.990;2023-05-07T10:04:24;15.00;99.90
9662;DHT22;24982;52.344;12.990;2023-05-07T10:07:27;15.30;99.90
9662;DHT22;24982;52.344;12.990;2023-05-07T10:10:34;15.40;99.90
9662;DHT22;24982;52.344;12.990;2023-05-07T10:13:41;15.50;99.90
9662;DHT22;24982;52.344;12.990;2023-05-07T10:16:49;15.50;99.90
9662;DHT22;24982;52.344;12.990;2023-05-07T10:19:54;15.40;99.90
9662;DHT22;24982;52.344;12.990;2023-05-07T10:22:58;15.20;99.90
9662;DHT22;24982;52.344;12.990;2023-05-07T10:26:09;15.00;99.90
9662;DHT22;24982;52.344;12.990;2023-05-07T10:29:17;15.00;99.90
9662;DHT22;24982;52.344;12.990;2023-05-07T10:32:33;15.30;99.90
9662;DHT22;24982;52.344;12.990;2023-05-07T10:35:46;15.60;99.90
9662;DHT22;24982;52.344;12.990;2023-05-07T10:38:50;15.90;99.90
9662;DHT22;24982;52.344;12.990;2023-05-07T10:41:53;15.80;99.90
9662;DHT22;24982;52.344;12.990;2023-05-07T10:44:55;15.70;99.90
9662;DHT22;24982;52.344;12.990;2023-05-07T10:48:09;15.50;99.90
9662;DHT22;24982;52.344;12.990;2023-05-07T10:51:20;15.40;99.90
9662;DHT22;24982;52.344;12.990;2023-05-07T10:54:28;15.50;99.90
9662;DHT22;24982;52.344;12.990;2023-05-07T10:57:36;15.70;99.90
9662;DHT22;24982;52.344;12.990;2023-05-07T11:00:48;16.10;99.90
9662;DHT22;24982;52.344;12.990;2023-05-07T11:04:23;16.30;99.90
9662;DHT22;24982;52.344;12.990;2023-05-07T11:07:38;16.40;99.90
9662;DHT22;24982;52.344;12.990;2023-05-07T11:10:56;16.80;99.90
9662;DHT22;24982;52.344;12.990;2023-05-07T11:14:46;17.20;99.90
9662;DHT22;24982;52.344;12.990;2023-05-07T11:18:00;17.40;99.90
9662;DHT22;24982;52.344;12.990;2023-05-07T11:21:09;17.70;99.90
9662;DHT22;24982;52.344;12.990;2023-05-07T11:24:20;17.70;99.90
9662;DHT22;24982;52.344;12.990;2023-05-07T11:27:28;17.80;99.90
9662;DHT22;24982;52.344;12.990;2023-05-07T11:30:31;18.00;99.90
9662;DHT22;24982;52.344;12.990;2023-05-07T11:33:34;17.90;99.90
9662;DHT22;24982;52.344;12.990;2023-05-07T11:36:42;17.50;99.90
9662;DHT22;24982;52.344;12.990;2023-05-07T11:39:49;17.50;99.90
9662;DHT22;24982;52.344;12.990;2023-05-07T11:42:55;17.50;99.90
9662;DHT22;24982;52.344;12.990;2023-05-07T11:46:06;17.80;99.90
9662;DHT22;24982;52.344;12.990;2023-05-07T11:49:09;18.20;99.90
9662;DHT22;24982;52.344;12.990;2023-05-07T11:52:13;18.50;99.90
9662;DHT22;24982;52.344;12.990;2023-05-07T11:55:18;18.70;99.90
9662;DHT22;24982;52.344;12.990;2023-05-07T11:58:21;19.10;99.90
9662;DHT22;24982;52.344;12.990;2023-05-07T12:01:23;19.50;99.90
9662;DHT22;24982;52.344;12.990;2023-05-07T12:04:25;19.50;99.90
9662;DHT22;24982;52.344;12.990;2023-05-07T12:07:27;19.00;99.90
9662;DHT22;24982;52.344;12.990;2023-05-07T12:10:31;19.10;99.90
9662;DHT22;24982;52.344;12.990;2023-05-07T12:13:33;19.10;99.90
9662;DHT22;24982;52.344;12.990;2023-05-07T12:16:35;19.10;99.90
9662;DHT22;24982;52.344;12.990;2023-05-07T12:19:38;19.20;99.90
9662;DHT22;24982;52.344;12.990;2023-05-07T12:22:40;19.10;99.90
9662;DHT22;24982;52.344;12.990;2023-05-07T12:25:44;18.70;99.90
9662;DHT22;24982;52.344;12.990;2023-05-07T12:28:48;18.30;99.90
9662;DHT22;24982;52.344;12.990;2023-05-07T12:31:50;18.10;99.90
9662;DHT22;24982;52.344;12.990;2023-05-07T12:34:52;17.80;99.90
9662;DHT22;24982;52.344;12.990;2023-05-07T12:37:58;17.60;99.90
9662;DHT22;24982;52.344;12.990;2023-05-07T12:41:07;17.50;99.90
9662;DHT22;24982;52.344;12.990;2023-05-07T12:44:09;17.30;99.90
9662;DHT22;24982;52.344;12.990;2023-05-07T12:47:11;17.30;99.90
9662;DHT22;24982;52.344;12.990;2023-05-07T12:50:13;17.30;99.90
9662;DHT22;24982;52.344;12.990;2023-05-07T12:53:15;17.50;99.90
9662;DHT22;24982;52.344;12.990;2023-05-07T12:56:19;17.70;99.90
9662;DHT22;24982;52.344;12.990;2023-05-07T12:59:31;18.10;99.90
9662;DHT22;24982;52.344;12.990;2023-05-07T13:02:33;18.20;99.90
9662;DHT22;24982;52.344;12.990;2023-05-07T13:05:36;18.30;99.90
9662;DHT22;24982;52.344;12.990;2023-05-07T13:08:39;18.50;99.90
9662;DHT22;24982;52.344;12.990;2023-05-07T13:11:45;18.50;99.90
9662;DHT22;24982;52.344;12.990;2023-05-07T13:14:47;18.70;99.90
9662;DHT22;24982;52.344;12.990;2023-05-07T13:17:48;18.70;99.90
9662;DHT22;24982;52.344;12.990;2023-05-07T13:20:50;18.60;99.90
9662;DHT22;24982;52.344;12.990;2023-05-07T13:23:52;18.60;99.90
9662;DHT22;24982;52.344;12.990;2023-05-07T13:26:56;18.70;99.90
9662;DHT22;24982;52.344;12.990;2023-05-07T13:29:58;18.90;99.90
9662;DHT22;24982;52.344;12.990;2023-05-07T13:33:00;19.00;99.90
9662;DHT22;24982;52.344;12.990;2023-05-07T13:36:02;18.80;99.90
9662;DHT22;24982;52.344;12.990;2023-05-07T13:39:06;18.50;99.90
9662;DHT22;24982;52.344;12.990;2023-05-07T13:42:09;18.30;99.90
9662;DHT22;24982;52.344;12.990;2023-05-07T13:45:11;17.80;99.90
9662;DHT22;24982;52.344;12.990;2023-05-07T13:48:14;18.10;99.90
9662;DHT22;24982;52.344;12.990;2023-05-07T13:51:16;18.00;99.90
9662;DHT22;24982;52.344;12.990;2023-05-07T13:57:22;18.00;99.90
9662;DHT22;24982;52.344;12.990;2023-05-07T14:00:28;17.90;99.90
9662;DHT22;24982;52.344;12.990;2023-05-07T14:03:33;18.10;99.90
9662;DHT22;24982;52.344;12.990;2023-05-07T14:06:35;18.00;99.90
9662;DHT22;24982;52.344;12.990;2023-05-07T14:09:37;18.10;99.90
9662;DHT22;24982;52.344;12.990;2023-05-07T14:12:40;18.30;99.90
9662;DHT22;24982;52.344;12.990;2023-05-07T14:15:42;18.50;99.90
9662;DHT22;24982;52.344;12.990;2023-05-07T14:18:46;18.70;99.90
9662;DHT22;24982;52.344;12.990;2023-05-07T14:21:48;19.00;99.90
9662;DHT22;24982;52.344;12.990;2023-05-07T14:24:53;19.20;99.90
9662;DHT22;24982;52.344;12.990;2023-05-07T14:27:56;19.50;99.90
9662;DHT22;24982;52.344;12.990;2023-05-07T14:30:58;19.40;99.90
9662;DHT22;24982;52.344;12.990;2023-05-07T14:34:00;19.60;99.90
9662;DHT22;24982;52.344;12.990;2023-05-07T14:37:03;19.50;99.90
9662;DHT22;24982;52.344;12.990;2023-05-07T14:40:06;19.40;99.90
9662;DHT22;24982;52.344;12.990;2023-05-07T14:43:10;19.40;99.90
9662;DHT22;24982;52.344;12.990;2023-05-07T14:46:12;19.40;99.90
9662;DHT22;24982;52.344;12.990;2023-05-07T14:55:20;19.50;99.90
9662;DHT22;24982;52.344;12.990;2023-05-07T14:58:23;19.40;99.90
9662;DHT22;24982;52.344;12.990;2023-05-07T15:01:25;19.20;99.90
9662;DHT22;24982;52.344;12.990;2023-05-07T15:04:27;19.10;99.90
9662;DHT22;24982;52.344;12.990;2023-05-07T15:07:29;19.10;99.90
9662;DHT22;24982;52.344;12.990;2023-05-07T15:10:35;19.00;99.90
9662;DHT22;24982;52.344;12.990;2023-05-07T15:13:43;18.80;99.90
9662;DHT22;24982;52.344;12.990;2023-05-07T15:16:45;18.80;99.90
9662;DHT22;24982;52.344;12.990;2023-05-07T15:19:47;18.60;99.90
9662;DHT22;24982;52.344;12.990;2023-05-07T15:22:49;18.50;99.90
9662;DHT22;24982;52.344;12.990;2023-05-07T15:25:51;18.40;99.90
9662;DHT22;24982;52.344;12.990;2023-05-07T15:28:54;18.20;99.90
9662;DHT22;24982;52.344;12.990;2023-05-07T15:31:58;17.90;99.90
9662;DHT22;24982;52.344;12.990;2023-05-07T15:35:00;17.80;99.90
9662;DHT22;24982;52.344;12.990;2023-05-07T15:38:04;17.70;99.90
9662;DHT22;24982;52.344;12.990;2023-05-07T15:41:06;17.60;99.90
9662;DHT22;24982;52.344;12.990;2023-05-07T15:44:11;17.60;99.90
9662;DHT22;24982;52.344;12.990;2023-05-07T15:47:13;17.60;99.90
9662;DHT22;24982;52.344;12.990;2023-05-07T15:50:15;17.40;99.90
9662;DHT22;24982;52.344;12.990;2023-05-07T15:53:17;17.30;99.90
9662;DHT22;24982;52.344;12.990;2023-05-07T15:56:19;17.20;99.90
9662;DHT22;24982;52.344;12.990;2023-05-07T15:59:22;17.20;99.90
9662;DHT22;24982;52.344;12.990;2023-05-07T16:02:24;17.20;99.90
9662;DHT22;24982;52.344;12.990;2023-05-07T16:05:26;17.10;99.90
9662;DHT22;24982;52.344;12.990;2023-05-07T16:08:28;17.10;99.90
9662;DHT22;24982;52.344;12.990;2023-05-07T16:11:30;17.00;99.90
9662;DHT22;24982;52.344;12.990;2023-05-07T16:14:34;17.00;99.90
9662;DHT22;24982;52.344;12.990;2023-05-07T16:17:36;16.90;99.90
9662;DHT22;24982;52.344;12.990;2023-05-07T16:20:41;17.60;99.90
9662;DHT22;24982;52.344;12.990;2023-05-07T16:23:44;16.90;99.90
9662;DHT22;24982;52.344;12.990;2023-05-07T16:26:46;16.80;99.90
9662;DHT22;24982;52.344;12.990;2023-05-07T16:29:49;16.80;99.90
9662;DHT22;24982;52.344;12.990;2023-05-07T16:32:51;16.80;99.90
9662;DHT22;24982;52.344;12.990;2023-05-07T16:35:53;16.70;99.90
9662;DHT22;24982;52.344;12.990;2023-05-07T16:38:55;16.60;99.90
9662;DHT22;24982;52.344;12.990;2023-05-07T16:41:57;16.50;99.90
9662;DHT22;24982;52.344;12.990;2023-05-07T16:45:01;16.40;99.90
9662;DHT22;24982;52.344;12.990;2023-05-07T16:48:04;16.40;99.90
9662;DHT22;24982;52.344;12.990;2023-05-07T16:51:07;16.40;99.90
9662;DHT22;24982;52.344;12.990;2023-05-07T16:54:09;16.20;99.90
9662;DHT22;24982;52.344;12.990;2023-05-07T16:57:11;16.30;99.90
9662;DHT22;24982;52.344;12.990;2023-05-07T17:00:15;16.20;99.90
9662;DHT22;24982;52.344;12.990;2023-05-07T17:03:17;16.10;99.90
9662;DHT22;24982;52.344;12.990;2023-05-07T17:06:19;16.00;99.90
9662;DHT22;24982;52.344;12.990;2023-05-07T17:09:21;16.00;99.90
9662;DHT22;24982;52.344;12.990;2023-05-07T17:12:23;16.00;99.90
9662;DHT22;24982;52.344;12.990;2023-05-07T17:15:27;16.00;99.90
9662;DHT22;24982;52.344;12.990;2023-05-07T17:18:31;15.90;99.90
9662;DHT22;24982;52.344;12.990;2023-05-07T17:21:32;15.80;99.90
9662;DHT22;24982;52.344;12.990;2023-05-07T17:24:35;15.80;99.90
9662;DHT22;24982;52.344;12.990;2023-05-07T17:27:37;15.70;99.90
9662;DHT22;24982;52.344;12.990;2023-05-07T17:30:40;15.70;99.90
9662;DHT22;24982;52.344;12.990;2023-05-07T17:33:42;15.40;99.90
9662;DHT22;24982;52.344;12.990;2023-05-07T17:36:44;15.90;99.90
9662;DHT22;24982;52.344;12.990;2023-05-07T17:39:46;15.70;99.90
9662;DHT22;24982;52.344;12.990;2023-05-07T17:42:49;15.60;99.90
9662;DHT22;24982;52.344;12.990;2023-05-07T17:45:52;15.60;99.90
9662;DHT22;24982;52.344;12.990;2023-05-07T17:48:54;15.60;99.90
9662;DHT22;24982;52.344;12.990;2023-05-07T17:51:57;15.50;99.90
9662;DHT22;24982;52.344;12.990;2023-05-07T17:54:59;15.50;99.90
9662;DHT22;24982;52.344;12.990;2023-05-07T17:58:01;15.50;99.90
9662;DHT22;24982;52.344;12.990;2023-05-07T18:01:04;15.40;99.90
9662;DHT22;24982;52.344;12.990;2023-05-07T18:04:07;15.40;99.90
9662;DHT22;24982;52.344;12.990;2023-05-07T18:07:09;15.30;99.90
9662;DHT22;24982;52.344;12.990;2023-05-07T18:10:11;15.30;99.90
9662;DHT22;24982;52.344;12.990;2023-05-07T18:13:14;15.30;99.90
9662;DHT22;24982;52.344;12.990;2023-05-07T18:16:17;15.30;99.90
9662;DHT22;24982;52.344;12.990;2023-05-07T18:19:19;15.20;99.90
9662;DHT22;24982;52.344;12.990;2023-05-07T18:22:21;15.20;99.90
9662;DHT22;24982;52.344;12.990;2023-05-07T18:25:23;15.20;99.90
9662;DHT22;24982;52.344;12.990;2023-05-07T18:28:26;15.10;99.90
9662;DHT22;24982;52.344;12.990;2023-05-07T18:31:29;15.10;99.90
9662;DHT22;24982;52.344;12.990;2023-05-07T18:34:31;15.10;99.90
9662;DHT22;24982;52.344;12.990;2023-05-07T18:37:34;15.10;99.90
9662;DHT22;24982;52.344;12.990;2023-05-07T18:40:35;15.00;99.90
9662;DHT22;24982;52.344;12.990;2023-05-07T18:43:43;15.00;99.90
9662;DHT22;24982;52.344;12.990;2023-05-07T18:46:47;15.00;99.90
9662;DHT22;24982;52.344;12.990;2023-05-07T18:49:49;15.00;99.90
9662;DHT22;24982;52.344;12.990;2023-05-07T18:52:51;15.00;99.90
9662;DHT22;24982;52.344;12.990;2023-05-07T18:55:56;14.90;99.90
9662;DHT22;24982;52.344;12.990;2023-05-07T18:59:00;14.20;99.90
9662;DHT22;24982;52.344;12.990;2023-05-07T19:02:06;14.30;99.90
9662;DHT22;24982;52.344;12.990;2023-05-07T19:05:08;14.80;99.90
9662;DHT22;24982;52.344;12.990;2023-05-07T19:08:11;14.80;99.90
9662;DHT22;24982;52.344;12.990;2023-05-07T19:11:13;14.80;99.90
9662;DHT22;24982;52.344;12.990;2023-05-07T19:14:15;14.70;99.90
9662;DHT22;24982;52.344;12.990;2023-05-07T19:17:20;14.60;99.90
9662;DHT22;24982;52.344;12.990;2023-05-07T19:20:22;14.50;99.90
9662;DHT22;24982;52.344;12.990;2023-05-07T19:23:24;14.50;99.90
9662;DHT22;24982;52.344;12.990;2023-05-07T19:26:26;14.40;99.90
9662;DHT22;24982;52.344;12.990;2023-05-07T19:29:28;14.40;99.90
9662;DHT22;24982;52.344;12.990;2023-05-07T19:32:32;14.30;99.90
9662;DHT22;24982;52.344;12.990;2023-05-07T19:35:34;14.30;99.90
9662;DHT22;24982;52.344;12.990;2023-05-07T19:38:36;14.50;99.90
9662;DHT22;24982;52.344;12.990;2023-05-07T19:41:38;14.20;99.90
9662;DHT22;24982;52.344;12.990;2023-05-07T19:44:41;14.20;99.90
9662;DHT22;24982;52.344;12.990;2023-05-07T19:47:46;14.20;99.90
9662;DHT22;24982;52.344;12.990;2023-05-07T19:50:48;14.10;99.90
9662;DHT22;24982;52.344;12.990;2023-05-07T19:53:51;14.00;99.90